createdAt,value
2023-01-12T00:00:03.070Z,2.1
2023-01-12T00:01:11.424Z,2.1
2023-01-12T00:02:20.032Z,1.9
2023-01-12T00:03:28.341Z,1.9
2023-01-12T00:04:36.709Z,1.9
2023-01-12T00:05:45.241Z,1.9
2023-01-12T00:06:53.610Z,1.9
2023-01-12T00:08:03.179Z,1.9
2023-01-12T00:09:10.512Z,2.3
2023-01-12T00:10:18.830Z,2.3
2023-01-12T00:11:27.185Z,2.3
2023-01-12T00:12:35.728Z,2.1
2023-01-12T00:13:44.079Z,2.1
2023-01-12T00:14:52.428Z,2.1
2023-01-12T00:16:01.052Z,2.1
2023-01-12T00:17:09.374Z,2.1
2023-01-12T00:18:17.706Z,2.1
2023-01-12T00:19:26.252Z,2.2
2023-01-12T00:20:34.600Z,2.2
2023-01-12T00:21:42.956Z,2.2
2023-01-12T00:22:51.493Z,2.1
2023-01-12T00:23:59.861Z,2.1
2023-01-12T00:25:08.184Z,2.1
2023-01-12T00:26:16.742Z,2
2023-01-12T00:27:25.089Z,2
2023-01-12T00:28:33.428Z,2
2023-01-12T00:29:41.993Z,1.9
2023-01-12T00:30:50.346Z,1.9
2023-01-12T00:31:58.708Z,1.9
2023-01-12T00:33:07.245Z,2.1
2023-01-12T00:34:15.592Z,2.1
2023-01-12T00:35:23.976Z,2.1
2023-01-12T00:36:32.549Z,1.6
2023-01-12T00:37:40.904Z,1.6
2023-01-12T00:38:49.291Z,1.6
2023-01-12T00:40:02.342Z,1.9
2023-01-12T00:41:06.165Z,1.9
2023-01-12T00:42:14.509Z,1.9
2023-01-12T00:43:23.065Z,2.1
2023-01-12T00:44:31.427Z,2.1
2023-01-12T00:45:39.765Z,2.1
2023-01-12T00:46:48.321Z,1.7
2023-01-12T00:47:56.646Z,1.7
2023-01-12T00:49:05.009Z,1.7
2023-01-12T00:50:13.562Z,2.1
2023-01-12T00:51:21.912Z,2.1
2023-01-12T00:52:31.559Z,2.1
2023-01-12T00:53:38.786Z,2.2
2023-01-12T00:54:47.143Z,2.2
2023-01-12T00:55:55.548Z,2.2
2023-01-12T00:57:04.046Z,1.9
2023-01-12T00:58:12.405Z,1.9
2023-01-12T00:59:20.749Z,1.9
2023-01-12T01:00:29.295Z,2.2
2023-01-12T01:01:37.695Z,2.2
2023-01-12T01:02:46.021Z,2.2
2023-01-12T01:03:54.569Z,1.9
2023-01-12T01:05:02.935Z,1.9
2023-01-12T01:06:11.271Z,1.9
2023-01-12T01:07:19.837Z,2.1
2023-01-12T01:08:28.188Z,2.1
2023-01-12T01:09:36.523Z,2.1
2023-01-12T01:10:45.066Z,2.3
2023-01-12T01:11:53.456Z,2.3
2023-01-12T01:13:01.766Z,2.3
2023-01-12T01:14:10.305Z,2.8
2023-01-12T01:15:18.662Z,2.8
2023-01-12T01:16:27.016Z,2.8
2023-01-12T01:17:35.584Z,2.3
2023-01-12T01:18:43.937Z,2.3
2023-01-12T01:19:52.275Z,2.3
2023-01-12T01:21:00.825Z,1.8
2023-01-12T01:22:09.189Z,1.8
2023-01-12T01:23:17.547Z,1.8
2023-01-12T01:24:26.097Z,2.3
2023-01-12T01:25:34.438Z,2.3
2023-01-12T01:26:42.795Z,2.3
2023-01-12T01:27:51.371Z,1.4
2023-01-12T01:28:59.685Z,1.4
2023-01-12T01:30:08.039Z,1.4
2023-01-12T01:31:16.638Z,1.8
2023-01-12T01:32:24.959Z,1.8
2023-01-12T01:33:33.270Z,1.8
2023-01-12T01:34:41.828Z,2.2
2023-01-12T01:35:50.179Z,2.2
2023-01-12T01:36:58.529Z,2.2
2023-01-12T01:38:07.090Z,2.1
2023-01-12T01:39:15.407Z,2.1
2023-01-12T01:40:23.760Z,2.1
2023-01-12T01:41:32.333Z,2.1
2023-01-12T01:42:40.677Z,2.1
2023-01-12T01:43:49.046Z,2.1
2023-01-12T01:44:57.572Z,1.7
2023-01-12T01:46:05.979Z,1.7
2023-01-12T01:47:14.282Z,1.7
2023-01-12T01:48:22.827Z,2
2023-01-12T01:49:31.170Z,2
2023-01-12T01:50:39.506Z,2
2023-01-12T01:51:48.065Z,2
2023-01-12T01:52:56.411Z,2
2023-01-12T01:54:04.767Z,2
2023-01-12T01:55:13.341Z,2.2
2023-01-12T01:56:21.679Z,2.2
2023-01-12T01:57:30.022Z,2.2
2023-01-12T01:58:38.587Z,1.8
2023-01-12T01:59:47.044Z,1.8
2023-01-12T02:00:55.370Z,1.8
2023-01-12T02:02:03.940Z,1.9
2023-01-12T02:03:12.252Z,1.9
2023-01-12T02:04:20.537Z,1.9
2023-01-12T02:05:29.098Z,1.6
2023-01-12T02:06:37.457Z,1.6
2023-01-12T02:07:45.789Z,1.6
2023-01-12T02:08:54.377Z,2.3
2023-01-12T02:10:02.696Z,2.3
2023-01-12T02:11:11.064Z,2.3
2023-01-12T02:12:19.617Z,2
2023-01-12T02:13:27.963Z,2
2023-01-12T02:14:36.338Z,2
2023-01-12T02:15:44.921Z,2.1
2023-01-12T02:16:53.243Z,2.1
2023-01-12T02:18:01.588Z,2.1
2023-01-12T02:19:10.132Z,2.2
2023-01-12T02:20:18.473Z,2.2
2023-01-12T02:21:26.832Z,2.2
2023-01-12T02:22:35.383Z,2.2
2023-01-12T02:23:43.744Z,2.2
2023-01-12T02:24:52.058Z,2.2
2023-01-12T02:26:00.631Z,2.5
2023-01-12T02:27:08.994Z,2.5
2023-01-12T02:28:17.334Z,2.5
2023-01-12T02:29:25.879Z,2
2023-01-12T02:30:34.252Z,2
2023-01-12T02:31:42.670Z,2
2023-01-12T02:32:51.161Z,2.4
2023-01-12T02:33:59.497Z,2.4
2023-01-12T02:35:07.841Z,2.4
2023-01-12T02:36:16.396Z,2.8
2023-01-12T02:37:24.734Z,2.8
2023-01-12T02:38:33.080Z,2.8
2023-01-12T02:39:41.639Z,2.6
2023-01-12T02:40:49.981Z,2.6
2023-01-12T02:41:58.333Z,2.6
2023-01-12T02:43:06.887Z,2.3
2023-01-12T02:44:15.224Z,2.3
2023-01-12T02:45:23.573Z,2.3
2023-01-12T02:46:32.230Z,2.6
2023-01-12T02:47:40.551Z,2.6
2023-01-12T02:48:48.823Z,2.6
2023-01-12T02:49:57.385Z,2
2023-01-12T02:51:05.762Z,2
2023-01-12T02:52:14.090Z,2
2023-01-12T02:53:22.622Z,2.1
2023-01-12T02:54:30.959Z,2.1
2023-01-12T02:55:39.313Z,2.1
2023-01-12T02:56:47.869Z,2.3
2023-01-12T02:57:56.225Z,2.3
2023-01-12T02:59:04.558Z,2.3
2023-01-12T03:00:13.095Z,2.4
2023-01-12T03:01:21.534Z,2.4
2023-01-12T03:02:29.805Z,2.4
2023-01-12T03:03:38.511Z,2.1
2023-01-12T03:04:46.732Z,2.1
2023-01-12T03:05:55.081Z,2.1
2023-01-12T03:07:03.643Z,1.9
2023-01-12T03:08:12.000Z,1.9
2023-01-12T03:09:20.348Z,1.9
2023-01-12T03:10:28.896Z,2.2
2023-01-12T03:11:37.235Z,2.2
2023-01-12T03:12:45.575Z,2.2
2023-01-12T03:13:54.129Z,2.4
2023-01-12T03:15:02.475Z,2.4
2023-01-12T03:16:10.872Z,2.4
2023-01-12T03:17:19.386Z,2.3
2023-01-12T03:18:27.718Z,2.3
2023-01-12T03:19:36.095Z,2.3
2023-01-12T03:20:44.618Z,2.2
2023-01-12T03:21:52.987Z,2.2
2023-01-12T03:23:01.340Z,2.2
2023-01-12T03:24:09.887Z,2.3
2023-01-12T03:25:18.249Z,2.3
2023-01-12T03:26:26.606Z,2.3
2023-01-12T03:27:35.143Z,2
2023-01-12T03:28:43.495Z,2
2023-01-12T03:29:51.862Z,2
2023-01-12T03:31:00.420Z,1.9
2023-01-12T03:32:08.778Z,1.9
2023-01-12T03:33:17.117Z,1.9
2023-01-12T03:34:25.649Z,2
2023-01-12T03:35:34.027Z,2
2023-01-12T03:36:42.376Z,2
2023-01-12T03:37:50.911Z,2.2
2023-01-12T03:38:59.262Z,2.2
2023-01-12T03:40:07.598Z,2.2
2023-01-12T03:41:16.161Z,2.3
2023-01-12T03:42:24.553Z,2.3
2023-01-12T03:43:32.873Z,2.3
2023-01-12T03:44:41.423Z,2.4
2023-01-12T03:45:49.807Z,2.4
2023-01-12T03:46:58.210Z,2.4
2023-01-12T03:48:06.699Z,2.7
2023-01-12T03:49:15.060Z,2.7
2023-01-12T03:50:23.404Z,2.7
2023-01-12T03:51:32.009Z,2.2
2023-01-12T03:52:40.315Z,2.2
2023-01-12T03:53:48.639Z,2.2
2023-01-12T03:54:57.197Z,2.2
2023-01-12T03:56:05.546Z,2.2
2023-01-12T03:57:13.884Z,2.2
2023-01-12T03:58:22.453Z,2.4
2023-01-12T03:59:30.809Z,2.4
2023-01-12T04:00:39.156Z,2.4
2023-01-12T04:01:47.924Z,2.2
2023-01-12T04:02:56.096Z,2.2
2023-01-12T04:04:04.397Z,2.2
2023-01-12T04:05:12.933Z,2.4
2023-01-12T04:06:21.294Z,2.4
2023-01-12T04:07:29.664Z,2.4
2023-01-12T04:08:38.196Z,1.8
2023-01-12T04:09:46.536Z,1.8
2023-01-12T04:10:54.888Z,1.8
2023-01-12T04:12:03.448Z,2.4
2023-01-12T04:13:11.792Z,2.4
2023-01-12T04:14:20.147Z,2.4
2023-01-12T04:15:28.704Z,2.4
2023-01-12T04:16:37.103Z,2.4
2023-01-12T04:17:45.431Z,2.4
2023-01-12T04:18:53.984Z,2.7
2023-01-12T04:20:02.329Z,2.7
2023-01-12T04:21:10.692Z,2.7
2023-01-12T04:22:19.265Z,2
2023-01-12T04:23:27.637Z,2
2023-01-12T04:24:35.933Z,2
2023-01-12T04:25:44.490Z,2.4
2023-01-12T04:26:52.820Z,2.4
2023-01-12T04:28:01.235Z,2.4
2023-01-12T04:29:09.734Z,2.2
2023-01-12T04:30:18.079Z,2.2
2023-01-12T04:31:26.436Z,2.2
2023-01-12T04:32:34.981Z,2
2023-01-12T04:33:43.337Z,2
2023-01-12T04:34:51.776Z,2
2023-01-12T04:36:00.328Z,2.6
2023-01-12T04:37:08.683Z,2.6
2023-01-12T04:38:17.052Z,2.6
2023-01-12T04:39:25.638Z,2
2023-01-12T04:40:33.953Z,2
2023-01-12T04:41:42.314Z,2
2023-01-12T04:42:50.882Z,2
2023-01-12T04:43:59.213Z,2
2023-01-12T04:45:07.567Z,2
2023-01-12T04:46:16.155Z,2.6
2023-01-12T04:47:24.447Z,2.6
2023-01-12T04:48:32.781Z,2.6
2023-01-12T04:49:41.340Z,2.2
2023-01-12T04:50:49.690Z,2.2
2023-01-12T04:51:58.026Z,2.2
2023-01-12T04:53:06.648Z,2.1
2023-01-12T04:54:14.900Z,2.1
2023-01-12T04:55:23.292Z,2.1
2023-01-12T04:56:31.825Z,2
2023-01-12T04:57:40.164Z,2
2023-01-12T04:58:48.496Z,2
2023-01-12T04:59:57.055Z,2.3
2023-01-12T05:01:05.417Z,2.3
2023-01-12T05:02:13.790Z,2.3
2023-01-12T05:03:22.307Z,2
2023-01-12T05:04:30.702Z,2
2023-01-12T05:05:38.971Z,2
2023-01-12T05:06:47.535Z,2.7
2023-01-12T05:07:55.888Z,2.7
2023-01-12T05:09:04.241Z,2.7
2023-01-12T05:10:12.861Z,9.8
2023-01-12T05:11:21.248Z,9.8
2023-01-12T05:12:29.554Z,9.8
2023-01-12T05:13:38.112Z,13.4
2023-01-12T05:14:46.461Z,13.4
2023-01-12T05:15:54.832Z,13.4
2023-01-12T05:17:03.366Z,5.7
2023-01-12T05:18:11.705Z,5.7
2023-01-12T05:19:20.047Z,5.7
2023-01-12T05:20:28.597Z,3.2
2023-01-12T05:21:36.949Z,3.2
2023-01-12T05:22:45.297Z,3.2
2023-01-12T05:23:53.861Z,10.9
2023-01-12T05:25:02.195Z,10.9
2023-01-12T05:26:10.553Z,10.9
2023-01-12T05:27:19.133Z,9.9
2023-01-12T05:28:27.435Z,9.9
2023-01-12T05:29:35.765Z,9.9
2023-01-12T05:30:44.380Z,4.8
2023-01-12T05:31:52.671Z,4.8
2023-01-12T05:33:01.025Z,4.8
2023-01-12T05:34:09.577Z,21.200001
2023-01-12T05:35:17.908Z,21.200001
2023-01-12T05:36:26.638Z,21.200001
2023-01-12T05:37:34.830Z,6.9
2023-01-12T05:38:43.165Z,6.9
2023-01-12T05:39:51.524Z,6.9
2023-01-12T05:41:00.068Z,2.2
2023-01-12T05:42:08.404Z,2.2
2023-01-12T05:43:16.760Z,2.2
2023-01-12T05:44:25.294Z,2.3
2023-01-12T05:45:33.642Z,2.3
2023-01-12T05:46:42.007Z,2.3
2023-01-12T05:47:50.574Z,2.4
2023-01-12T05:48:58.935Z,2.4
2023-01-12T05:50:07.280Z,2.4
2023-01-12T05:51:15.839Z,2.1
2023-01-12T05:52:24.182Z,2.1
2023-01-12T05:53:32.524Z,2.1
2023-01-12T05:54:41.084Z,8.2
2023-01-12T05:55:49.419Z,8.2
2023-01-12T05:56:57.772Z,8.2
2023-01-12T05:58:06.325Z,10.9
2023-01-12T05:59:14.696Z,10.9
2023-01-12T06:00:23.016Z,10.9
2023-01-12T06:01:31.601Z,3.8
2023-01-12T06:02:39.964Z,3.8
2023-01-12T06:03:48.294Z,3.8
2023-01-12T06:04:56.854Z,2.4
2023-01-12T06:06:05.227Z,2.4
2023-01-12T06:07:13.595Z,2.4
2023-01-12T06:08:22.152Z,2.5
2023-01-12T06:09:30.496Z,2.5
2023-01-12T06:10:38.855Z,2.5
2023-01-12T06:11:47.422Z,2.8
2023-01-12T06:12:55.822Z,2.8
2023-01-12T06:14:04.190Z,2.8
2023-01-12T06:15:12.847Z,2
2023-01-12T06:16:21.139Z,2
2023-01-12T06:17:29.478Z,2
2023-01-12T06:18:38.048Z,2.5
2023-01-12T06:19:46.376Z,2.5
2023-01-12T06:20:54.707Z,2.5
2023-01-12T06:22:03.264Z,2
2023-01-12T06:23:11.611Z,2
2023-01-12T06:24:19.954Z,2
2023-01-12T06:25:28.523Z,3.6
2023-01-12T06:26:36.877Z,3.6
2023-01-12T06:27:45.240Z,3.6
2023-01-12T06:28:53.811Z,3.3
2023-01-12T06:30:02.179Z,3.3
2023-01-12T06:31:10.597Z,3.3
2023-01-12T06:32:19.079Z,2.7
2023-01-12T06:33:27.439Z,2.7
2023-01-12T06:34:35.810Z,2.7
2023-01-12T06:35:44.345Z,2.5
2023-01-12T06:36:52.752Z,2.5
2023-01-12T06:38:01.100Z,2.5
2023-01-12T06:39:09.650Z,2.3
2023-01-12T06:40:17.989Z,2.3
2023-01-12T06:41:26.353Z,2.3
2023-01-12T06:42:34.977Z,2.4
2023-01-12T06:43:43.339Z,2.4
2023-01-12T06:44:51.690Z,2.4
2023-01-12T06:46:00.341Z,2.9
2023-01-12T06:47:08.635Z,2.9
2023-01-12T06:48:16.951Z,2.9
2023-01-12T06:49:25.521Z,2.2
2023-01-12T06:50:33.872Z,2.2
2023-01-12T06:51:42.213Z,2.2
2023-01-12T06:52:50.806Z,2.4
2023-01-12T06:53:59.142Z,2.4
2023-01-12T06:55:07.496Z,2.4
2023-01-12T06:56:16.061Z,2
2023-01-12T06:57:24.409Z,2
2023-01-12T06:58:32.754Z,2
2023-01-12T06:59:41.364Z,1.7
2023-01-12T07:00:49.750Z,1.7
2023-01-12T07:01:58.114Z,1.7
2023-01-12T07:03:06.633Z,2.1
2023-01-12T07:04:14.991Z,2.1
2023-01-12T07:05:23.304Z,2.1
2023-01-12T07:06:31.876Z,2.2
2023-01-12T07:07:40.718Z,2.2
2023-01-12T07:08:48.565Z,2.2
2023-01-12T07:09:57.105Z,2.3
2023-01-12T07:11:05.484Z,2.3
2023-01-12T07:12:13.832Z,2.3
2023-01-12T07:13:22.388Z,2.1
2023-01-12T07:14:30.741Z,2.1
2023-01-12T07:15:39.139Z,2.1
2023-01-12T07:16:47.710Z,2
2023-01-12T07:17:56.100Z,2
2023-01-12T07:19:04.454Z,2
2023-01-12T07:20:13.050Z,2.3
2023-01-12T07:21:21.386Z,2.3
2023-01-12T07:22:29.751Z,2.3
2023-01-12T07:23:38.321Z,2.2
2023-01-12T07:24:46.666Z,2.2
2023-01-12T07:25:55.004Z,2.2
2023-01-12T07:27:03.572Z,2.1
2023-01-12T07:28:11.929Z,2.1
2023-01-12T07:29:20.283Z,2.1
2023-01-12T07:30:28.864Z,2.5
2023-01-12T07:31:37.219Z,2.5
2023-01-12T07:32:45.569Z,2.5
2023-01-12T07:33:54.126Z,3.1
2023-01-12T07:35:02.495Z,3.1
2023-01-12T07:36:10.828Z,3.1
2023-01-12T07:37:19.383Z,3
2023-01-12T07:38:27.704Z,3
2023-01-12T07:39:36.052Z,3
2023-01-12T07:40:44.604Z,2.4
2023-01-12T07:41:52.965Z,2.4
2023-01-12T07:43:01.300Z,2.4
2023-01-12T07:44:09.850Z,5.8
2023-01-12T07:45:18.191Z,5.8
2023-01-12T07:46:26.568Z,5.8
2023-01-12T07:47:35.110Z,3
2023-01-12T07:48:43.441Z,3
2023-01-12T07:49:51.852Z,3
2023-01-12T07:51:00.556Z,3.4
2023-01-12T07:52:08.799Z,3.4
2023-01-12T07:53:17.163Z,3.4
2023-01-12T07:54:25.721Z,6
2023-01-12T07:55:34.129Z,6
2023-01-12T07:56:44.212Z,6
2023-01-12T07:57:51.079Z,2.2
2023-01-12T07:58:59.440Z,2.2
2023-01-12T08:00:07.864Z,2.2
2023-01-12T08:01:16.422Z,2.8
2023-01-12T08:02:24.844Z,2.8
2023-01-12T08:03:33.129Z,2.8
2023-01-12T08:04:41.711Z,3.1
2023-01-12T08:05:50.162Z,3.1
2023-01-12T08:06:58.452Z,3.1
2023-01-12T08:08:07.023Z,2
2023-01-12T08:09:15.344Z,2
2023-01-12T08:10:23.731Z,2
2023-01-12T08:11:32.349Z,2.7
2023-01-12T08:12:40.690Z,2.7
2023-01-12T08:13:49.039Z,2.7
2023-01-12T08:14:57.608Z,2.4
2023-01-12T08:16:05.979Z,2.4
2023-01-12T08:17:14.365Z,2.4
2023-01-12T08:18:22.918Z,2.2
2023-01-12T08:19:31.283Z,2.2
2023-01-12T08:20:39.682Z,2.2
2023-01-12T08:21:48.255Z,1.7
2023-01-12T08:22:56.666Z,1.7
2023-01-12T08:24:05.008Z,1.7
2023-01-12T08:25:13.557Z,1.8
2023-01-12T08:26:21.914Z,1.8
2023-01-12T08:27:30.270Z,1.8
2023-01-12T08:28:38.873Z,2
2023-01-12T08:29:47.267Z,2
2023-01-12T08:30:55.630Z,2
2023-01-12T08:32:04.597Z,1.8
2023-01-12T08:33:12.542Z,1.8
2023-01-12T08:34:20.888Z,1.8
2023-01-12T08:35:29.473Z,1.9
2023-01-12T08:36:37.798Z,1.9
2023-01-12T08:37:46.214Z,1.9
2023-01-12T08:38:54.833Z,1.7
2023-01-12T08:40:03.142Z,1.7
2023-01-12T08:41:11.511Z,1.7
2023-01-12T08:42:20.070Z,2
2023-01-12T08:43:28.449Z,2
2023-01-12T08:44:36.827Z,2
2023-01-12T08:45:45.447Z,1.7
2023-01-12T08:46:53.855Z,1.7
2023-01-12T08:48:02.170Z,1.7
2023-01-12T08:49:10.719Z,1.5
2023-01-12T08:50:19.068Z,1.5
2023-01-12T08:51:27.427Z,1.5
2023-01-12T08:52:35.973Z,1.8
2023-01-12T08:53:44.331Z,1.8
2023-01-12T08:54:52.708Z,1.8
2023-01-12T08:56:01.251Z,1.6
2023-01-12T08:57:09.620Z,1.6
2023-01-12T08:58:17.961Z,1.6
2023-01-12T08:59:26.529Z,1.7
2023-01-12T09:00:34.888Z,1.7
2023-01-12T09:01:43.360Z,1.7
2023-01-12T09:02:51.825Z,1.5
2023-01-12T09:04:00.177Z,1.5
2023-01-12T09:05:08.527Z,1.5
2023-01-12T09:06:17.076Z,1.8
2023-01-12T09:07:25.430Z,1.8
2023-01-12T09:08:33.798Z,1.8
2023-01-12T09:09:42.361Z,1.3
2023-01-12T09:10:50.765Z,1.3
2023-01-12T09:11:59.055Z,1.3
2023-01-12T09:13:07.660Z,1.7
2023-01-12T09:14:16.008Z,1.7
2023-01-12T09:15:24.371Z,1.7
2023-01-12T09:16:32.994Z,1.4
2023-01-12T09:17:41.321Z,1.4
2023-01-12T09:18:49.681Z,1.4
2023-01-12T09:19:58.247Z,1.4
2023-01-12T09:21:06.580Z,1.4
2023-01-12T09:22:14.937Z,1.4
2023-01-12T09:23:23.506Z,1.5
2023-01-12T09:24:31.862Z,1.5
2023-01-12T09:25:40.223Z,1.5
2023-01-12T09:26:48.825Z,1.2
2023-01-12T09:27:57.165Z,1.2
2023-01-12T09:29:05.537Z,1.2
2023-01-12T09:30:14.079Z,1.1
2023-01-12T09:31:22.507Z,1.1
2023-01-12T09:32:36.632Z,1.1
2023-01-12T09:33:39.365Z,6.9
2023-01-12T09:34:47.671Z,6.9
2023-01-12T09:35:56.045Z,6.9
2023-01-12T09:37:04.613Z,2.5
2023-01-12T09:38:12.973Z,2.5
2023-01-12T09:39:27.575Z,2.5
2023-01-12T09:40:29.892Z,3.3
2023-01-12T09:41:38.235Z,3.3
2023-01-12T09:42:46.683Z,3.3
2023-01-12T09:43:55.180Z,1.7
2023-01-12T09:45:03.520Z,1.7
2023-01-12T09:46:11.913Z,1.7
2023-01-12T09:47:20.487Z,1.1
2023-01-12T09:48:28.865Z,1.1
2023-01-12T09:49:37.210Z,1.1
2023-01-12T09:50:45.763Z,1.8
2023-01-12T09:51:54.101Z,1.8
2023-01-12T09:53:02.478Z,1.8
2023-01-12T09:54:11.051Z,1
2023-01-12T09:55:19.393Z,1
2023-01-12T09:56:27.768Z,1
2023-01-12T09:57:36.331Z,1.5
2023-01-12T09:58:44.737Z,1.5
2023-01-12T09:59:53.058Z,1.5
2023-01-12T10:01:01.671Z,0.8
2023-01-12T10:02:10.140Z,0.8
2023-01-12T10:03:18.412Z,0.8
2023-01-12T10:04:26.954Z,1.1
2023-01-12T10:05:39.459Z,1.1
2023-01-12T10:06:43.664Z,1.1
2023-01-12T10:07:52.223Z,0.9
2023-01-12T10:09:00.623Z,0.9
2023-01-12T10:10:08.990Z,0.9
2023-01-12T10:11:17.549Z,1.7
2023-01-12T10:12:25.893Z,1.7
2023-01-12T10:13:34.258Z,1.7
2023-01-12T10:14:42.861Z,1.7
2023-01-12T10:15:51.163Z,1.7
2023-01-12T10:16:59.490Z,1.7
2023-01-12T10:18:08.143Z,0.8
2023-01-12T10:19:16.513Z,0.8
2023-01-12T10:20:24.911Z,0.8
2023-01-12T10:21:33.486Z,0.8
2023-01-12T10:22:41.832Z,0.8
2023-01-12T10:23:50.330Z,0.8
2023-01-12T10:24:58.887Z,1.7
2023-01-12T10:26:07.233Z,1.7
2023-01-12T10:27:15.599Z,1.7
2023-01-12T10:28:24.192Z,0.8
2023-01-12T10:29:32.564Z,0.8
2023-01-12T10:30:40.940Z,0.8
2023-01-12T10:31:49.538Z,0.5
2023-01-12T10:32:57.852Z,0.5
2023-01-12T10:34:06.245Z,0.5
2023-01-12T10:35:14.857Z,0.9
2023-01-12T10:36:23.205Z,0.9
2023-01-12T10:37:31.641Z,0.9
2023-01-12T10:38:40.290Z,0.8
2023-01-12T10:39:48.639Z,0.8
2023-01-12T10:40:56.996Z,0.8
2023-01-12T10:42:05.612Z,0.8
2023-01-12T10:43:19.466Z,0.8
2023-01-12T10:44:22.386Z,0.8
2023-01-12T10:45:30.998Z,0.8
2023-01-12T10:46:39.353Z,0.8
2023-01-12T10:47:47.678Z,0.8
2023-01-12T10:48:56.559Z,0.8
2023-01-12T10:50:04.586Z,0.8
2023-01-12T10:51:12.978Z,0.8
2023-01-12T10:52:21.536Z,0.9
2023-01-12T10:53:30.081Z,0.9
2023-01-12T10:54:38.568Z,0.9
2023-01-12T10:55:47.171Z,0.8
2023-01-12T10:56:55.574Z,0.8
2023-01-12T10:58:03.895Z,0.8
2023-01-12T10:59:12.451Z,0.8
2023-01-12T11:00:20.787Z,0.8
2023-01-12T11:01:29.250Z,0.8
2023-01-12T11:02:37.764Z,0.6
2023-01-12T11:03:46.075Z,0.6
2023-01-12T11:04:55.231Z,0.6
2023-01-12T11:06:03.847Z,1
2023-01-12T11:07:12.235Z,1
2023-01-12T11:08:20.620Z,1
2023-01-12T11:09:29.171Z,1.1
2023-01-12T11:10:37.544Z,1.1
2023-01-12T11:11:45.896Z,1.1
2023-01-12T11:12:54.504Z,1.6
2023-01-12T11:14:03.023Z,1.6
2023-01-12T11:15:11.415Z,1.6
2023-01-12T11:16:20.017Z,0.8
2023-01-12T11:17:28.356Z,0.8
2023-01-12T11:18:36.771Z,0.8
2023-01-12T11:19:45.335Z,1.4
2023-01-12T11:20:53.696Z,1.4
2023-01-12T11:22:02.178Z,1.4
2023-01-12T11:23:10.783Z,1
2023-01-12T11:24:19.087Z,1
2023-01-12T11:25:27.535Z,1
2023-01-12T11:26:36.291Z,0.8
2023-01-12T11:27:44.612Z,0.8
2023-01-12T11:28:52.990Z,0.8
2023-01-12T11:30:01.650Z,0.6
2023-01-12T11:31:10.960Z,0.6
2023-01-12T11:32:19.395Z,0.6
2023-01-12T11:33:27.954Z,0.7
2023-01-12T11:34:36.599Z,0.7
2023-01-12T11:35:54.302Z,0.7
2023-01-12T11:37:02.881Z,0.5
2023-01-12T11:38:11.260Z,0.5
2023-01-12T11:39:19.652Z,0.5
2023-01-12T11:40:28.251Z,0.4
2023-01-12T11:41:36.602Z,0.4
2023-01-12T11:42:45.021Z,0.4
2023-01-12T11:43:53.757Z,0.5
2023-01-12T11:45:02.152Z,0.5
2023-01-12T11:46:10.594Z,0.5
2023-01-12T11:47:19.134Z,0.3
2023-01-12T11:48:27.551Z,0.3
2023-01-12T11:49:35.910Z,0.3
2023-01-12T11:50:44.614Z,0.5
2023-01-12T11:51:52.924Z,0.5
2023-01-12T11:53:01.348Z,0.5
2023-01-12T11:54:09.997Z,0.3
2023-01-12T11:55:18.400Z,0.3
2023-01-12T11:56:26.798Z,0.3
2023-01-12T11:57:35.401Z,0.4
2023-01-12T11:58:43.788Z,0.4
2023-01-12T11:59:52.129Z,0.4
2023-01-12T12:01:00.860Z,0.4
2023-01-12T12:02:09.260Z,0.4
2023-01-12T12:03:17.694Z,0.4
2023-01-12T12:04:26.157Z,0.3
2023-01-12T12:05:34.624Z,0.3
2023-01-12T12:06:43.108Z,0.3
2023-01-12T12:07:51.774Z,0.6
2023-01-12T12:09:00.113Z,0.6
2023-01-12T12:10:08.442Z,0.6
2023-01-12T12:11:17.028Z,0.4
2023-01-12T12:12:25.371Z,0.4
2023-01-12T12:13:33.759Z,0.4
2023-01-12T12:14:42.315Z,0.6
2023-01-12T12:15:50.755Z,0.6
2023-01-12T12:16:59.016Z,0.6
2023-01-12T12:18:07.604Z,0.6
2023-01-12T12:19:15.963Z,0.6
2023-01-12T12:20:24.331Z,0.6
2023-01-12T12:21:32.944Z,0.5
2023-01-12T12:22:41.313Z,0.5
2023-01-12T12:23:49.636Z,0.5
2023-01-12T12:24:58.202Z,0.4
2023-01-12T12:26:06.605Z,0.4
2023-01-12T12:27:14.996Z,0.4
2023-01-12T12:28:23.614Z,0.4
2023-01-12T12:29:31.996Z,0.4
2023-01-12T12:30:40.368Z,0.4
2023-01-12T12:31:48.949Z,0.3
2023-01-12T12:32:57.323Z,0.3
2023-01-12T12:34:05.679Z,0.3
2023-01-12T12:35:14.299Z,0.6
2023-01-12T12:36:22.685Z,0.6
2023-01-12T12:37:31.107Z,0.6
2023-01-12T12:38:39.692Z,0.5
2023-01-12T12:39:48.068Z,0.5
2023-01-12T12:40:56.444Z,0.5
2023-01-12T12:42:04.964Z,0.5
2023-01-12T12:43:13.342Z,0.5
2023-01-12T12:44:21.709Z,0.5
2023-01-12T12:45:30.366Z,0.6
2023-01-12T12:46:38.778Z,0.6
2023-01-12T12:47:47.123Z,0.6
2023-01-12T12:48:55.709Z,0.5
2023-01-12T12:50:04.091Z,0.5
2023-01-12T12:51:12.442Z,0.5
2023-01-12T12:52:20.997Z,0.3
2023-01-12T12:53:29.344Z,0.3
2023-01-12T12:54:37.796Z,0.3
2023-01-12T12:55:46.344Z,0.9
2023-01-12T12:56:54.677Z,0.9
2023-01-12T12:58:03.071Z,0.9
2023-01-12T12:59:11.642Z,0.5
2023-01-12T13:00:20.086Z,0.5
2023-01-12T13:01:28.465Z,0.5
2023-01-12T13:02:36.972Z,0.7
2023-01-12T13:03:45.279Z,0.7
2023-01-12T13:04:53.626Z,0.7
2023-01-12T13:06:02.197Z,0.5
2023-01-12T13:07:10.579Z,0.5
2023-01-12T13:08:18.916Z,0.5
2023-01-12T13:09:27.489Z,0.5
2023-01-12T13:10:35.874Z,0.5
2023-01-12T13:11:44.219Z,0.5
2023-01-12T13:12:52.766Z,0.6
2023-01-12T13:14:01.178Z,0.6
2023-01-12T13:15:09.538Z,0.6
2023-01-12T13:16:18.177Z,0.7
2023-01-12T13:17:26.449Z,0.7
2023-01-12T13:18:34.821Z,0.7
2023-01-12T13:19:43.411Z,0.5
2023-01-12T13:20:51.798Z,0.5
2023-01-12T13:22:00.148Z,0.5
2023-01-12T13:23:08.717Z,0.9
2023-01-12T13:24:19.109Z,0.9
2023-01-12T13:25:25.468Z,0.9
2023-01-12T13:26:34.141Z,0.5
2023-01-12T13:27:42.454Z,0.5
2023-01-12T13:28:50.883Z,0.5
2023-01-12T13:29:59.464Z,0.5
2023-01-12T13:31:07.820Z,0.5
2023-01-12T13:32:16.244Z,0.5
2023-01-12T13:33:24.948Z,1.9
2023-01-12T13:34:33.324Z,1.9
2023-01-12T13:35:41.696Z,1.9
2023-01-12T13:36:50.256Z,0.6
2023-01-12T13:37:58.662Z,0.6
2023-01-12T13:39:07.113Z,0.6
2023-01-12T13:40:15.699Z,0.6
2023-01-12T13:41:24.077Z,0.6
2023-01-12T13:42:32.484Z,0.6
2023-01-12T13:43:41.103Z,1
2023-01-12T13:44:49.501Z,1
2023-01-12T13:45:57.975Z,1
2023-01-12T13:47:06.593Z,0.5
2023-01-12T13:48:15.422Z,0.5
2023-01-12T13:49:23.374Z,0.5
2023-01-12T13:50:31.933Z,0.6
2023-01-12T13:51:40.328Z,0.6
2023-01-12T13:52:48.688Z,0.6
2023-01-12T13:53:57.239Z,0.7
2023-01-12T13:55:05.620Z,0.7
2023-01-12T13:56:13.982Z,0.7
2023-01-12T13:57:22.542Z,0.5
2023-01-12T13:58:30.939Z,0.5
2023-01-12T13:59:39.253Z,0.5
2023-01-12T14:00:47.802Z,0.8
2023-01-12T14:01:56.215Z,0.8
2023-01-12T14:03:04.615Z,0.8
2023-01-12T14:04:13.153Z,0.6
2023-01-12T14:05:21.528Z,0.6
2023-01-12T14:06:29.877Z,0.6
2023-01-12T14:07:38.453Z,0.9
2023-01-12T14:08:51.522Z,0.9
2023-01-12T14:09:55.182Z,0.9
2023-01-12T14:11:03.739Z,0.7
2023-01-12T14:12:12.068Z,0.7
2023-01-12T14:13:20.503Z,0.7
2023-01-12T14:14:29.088Z,0.8
2023-01-12T14:15:37.419Z,0.8
2023-01-12T14:17:05.111Z,0.8
2023-01-12T14:17:54.396Z,1.1
2023-01-12T14:19:02.763Z,1.1
2023-01-12T14:20:11.113Z,1.1
2023-01-12T14:21:19.676Z,0.8
2023-01-12T14:22:28.085Z,0.8
2023-01-12T14:23:36.510Z,0.8
2023-01-12T14:24:45.119Z,1.2
2023-01-12T14:25:53.488Z,1.2
2023-01-12T14:27:01.850Z,1.2
2023-01-12T14:28:10.437Z,0.9
2023-01-12T14:29:18.807Z,0.9
2023-01-12T14:30:27.236Z,0.9
2023-01-12T15:04:22.301Z,0
2023-01-12T15:05:30.647Z,0
2023-01-12T15:06:39.128Z,0
2023-01-12T15:07:47.718Z,1
2023-01-12T15:08:56.072Z,1
2023-01-12T15:10:04.543Z,1
2023-01-12T15:11:13.114Z,0.7
2023-01-12T15:12:21.472Z,0.7
2023-01-12T15:13:29.901Z,0.7
2023-01-12T15:14:38.442Z,0.9
2023-01-12T15:15:46.851Z,0.9
2023-01-12T15:16:55.239Z,0.9
2023-01-12T15:18:03.851Z,2.1
2023-01-12T15:19:12.180Z,2.1
2023-01-12T15:20:20.573Z,2.1
2023-01-12T15:21:29.084Z,1.3
2023-01-12T15:22:37.541Z,1.3
2023-01-12T15:23:45.913Z,1.3
2023-01-12T15:24:55.020Z,1.3
2023-01-12T15:26:02.867Z,1.3
2023-01-12T15:27:11.228Z,1.3
2023-01-12T15:28:19.792Z,3.1
2023-01-12T15:29:28.164Z,3.1
2023-01-12T15:30:36.568Z,3.1
2023-01-12T15:31:45.149Z,1.1
2023-01-12T15:32:53.488Z,1.1
2023-01-12T15:34:01.887Z,1.1
2023-01-12T15:35:10.417Z,4.4
2023-01-12T15:36:18.780Z,4.4
2023-01-12T15:37:27.127Z,4.4
2023-01-12T15:38:35.690Z,2.1
2023-01-12T15:39:44.053Z,2.1
2023-01-12T15:40:52.401Z,2.1
2023-01-12T15:42:00.955Z,2
2023-01-12T15:43:09.294Z,2
2023-01-12T15:44:17.647Z,2
2023-01-12T15:45:26.299Z,1.6
2023-01-12T15:46:34.567Z,1.6
2023-01-12T15:47:42.925Z,1.6
2023-01-12T15:48:51.476Z,0.8
2023-01-12T15:49:59.816Z,0.8
2023-01-12T15:51:08.174Z,0.8
2023-01-12T15:52:16.762Z,0.6
2023-01-12T15:53:25.087Z,0.6
2023-01-12T15:54:33.435Z,0.6
2023-01-12T15:55:42.014Z,0.7
2023-01-12T15:56:50.375Z,0.7
2023-01-12T15:57:58.710Z,0.7
2023-01-12T15:59:07.278Z,0.7
2023-01-12T16:00:15.612Z,0.7
2023-01-12T16:01:24.079Z,0.7
2023-01-12T16:02:32.562Z,1
2023-01-12T16:04:09.844Z,1
2023-01-12T16:04:49.349Z,1
2023-01-12T16:05:57.867Z,0.8
2023-01-12T16:07:06.225Z,0.8
2023-01-12T16:08:14.604Z,0.8
2023-01-12T16:09:23.138Z,0.8
2023-01-12T16:10:31.491Z,0.8
2023-01-12T16:11:39.833Z,0.8
2023-01-12T16:12:48.375Z,1.5
2023-01-12T16:13:56.751Z,1.5
2023-01-12T16:15:05.109Z,1.5
2023-01-12T16:16:13.685Z,0.8
2023-01-12T16:17:22.034Z,0.8
2023-01-12T16:18:30.405Z,0.8
2023-01-12T16:19:39.024Z,1
2023-01-12T16:20:47.475Z,1